EJU79CA LEIB-LSGG
Flight info
| Callsign | EJU79CA |
|---|---|
| Flight time | 1h 22m |
| Altitude | 34000 |
| Route | KABRE DCT ELTAN DCT MHN DCT MEROS DCT LAPIT DCT CHELY DCT LUMAS DCT NEVIX DCT ODIXU DCT MAXIR DCT LUSOL DCT BODRU/N0460F280 DCT OKTET DCT IRMAR DCT KINES |
| Aircraft | A320/M-SDE3FGHIRWY/LB1 |
Departure
| Time | 2026-05-05 17:42 |
|---|---|
| Airport | Ibiza Airport (LEIB) |
Arrival
| Time | 2026-05-05 19:04 |
|---|---|
| Airport | Geneva International Airport (LSGG) |
| Time | Latitude | Longitude | Altitude | Speed | Heading |
|---|---|---|---|---|---|
| 2026-05-05 17:12 | 38.87507 | 1.36796 | 10 ft | 0 kts | 17° |
| 2026-05-05 17:32 | 38.87495 | 1.36791 | 8 ft | 4 kts | 17° |
| 2026-05-05 17:32 | 38.87474 | 1.36782 | 8 ft | 3 kts | 17° |
| 2026-05-05 17:33 | 38.87449 | 1.36772 | 11 ft | 4 kts | 20° |
| 2026-05-05 17:33 | 38.87425 | 1.36758 | 10 ft | 4 kts | 39° |
| 2026-05-05 17:33 | 38.87411 | 1.36736 | 8 ft | 4 kts | 62° |
| 2026-05-05 17:33 | 38.87405 | 1.36722 | 8 ft | 0 kts | 62° |
| 2026-05-05 17:36 | 38.87415 | 1.36769 | 10 ft | 8 kts | 96° |
| 2026-05-05 17:36 | 38.87383 | 1.36810 | 8 ft | 6 kts | 151° |
| 2026-05-05 17:36 | 38.87336 | 1.36841 | 9 ft | 10 kts | 153° |
| 2026-05-05 17:37 | 38.87299 | 1.36884 | 9 ft | 8 kts | 97° |
| 2026-05-05 17:37 | 38.87315 | 1.36939 | 11 ft | 11 kts | 64° |
| 2026-05-05 17:37 | 38.87377 | 1.37089 | 10 ft | 18 kts | 62° |
| 2026-05-05 17:37 | 38.87444 | 1.37251 | 9 ft | 23 kts | 62° |
| 2026-05-05 17:38 | 38.87528 | 1.37452 | 9 ft | 27 kts | 62° |
| 2026-05-05 17:38 | 38.87619 | 1.37670 | 9 ft | 28 kts | 61° |
| 2026-05-05 17:38 | 38.87715 | 1.37899 | 9 ft | 30 kts | 62° |
| 2026-05-05 17:38 | 38.87815 | 1.38142 | 9 ft | 32 kts | 62° |
| 2026-05-05 17:39 | 38.87909 | 1.38369 | 9 ft | 21 kts | 62° |
| 2026-05-05 17:39 | 38.87975 | 1.38528 | 9 ft | 19 kts | 62° |
| 2026-05-05 17:39 | 38.87998 | 1.38622 | 9 ft | 9 kts | 111° |
| 2026-05-05 17:39 | 38.87956 | 1.38663 | 10 ft | 6 kts | 152° |
| 2026-05-05 17:40 | 38.87950 | 1.38667 | 10 ft | 0 kts | 151° |
| 2026-05-05 17:41 | 38.87932 | 1.38679 | 11 ft | 6 kts | 152° |
| 2026-05-05 17:41 | 38.87886 | 1.38710 | 12 ft | 7 kts | 153° |
| 2026-05-05 17:41 | 38.87855 | 1.38689 | 12 ft | 2 kts | 240° |
| 2026-05-05 17:42 | 38.87779 | 1.38505 | 14 ft | 59 kts | 242° |
| 2026-05-05 17:42 | 38.87475 | 1.37779 | 10 ft | 123 kts | 242° |
| 2026-05-05 17:42 | 38.86996 | 1.36629 | 155 ft | 159 kts | 241° |
| 2026-05-05 17:42 | 38.86465 | 1.35382 | 873 ft | 159 kts | 238° |
| 2026-05-05 17:43 | 38.85781 | 1.34198 | 1420 ft | 174 kts | 227° |
| 2026-05-05 17:43 | 38.84904 | 1.32987 | 1754 ft | 196 kts | 225° |
| 2026-05-05 17:43 | 38.83922 | 1.31670 | 2272 ft | 210 kts | 225° |
| 2026-05-05 17:43 | 38.82913 | 1.30302 | 3160 ft | 211 kts | 227° |
| 2026-05-05 17:44 | 38.81913 | 1.28931 | 4101 ft | 211 kts | 227° |
| 2026-05-05 17:44 | 38.80809 | 1.27684 | 4957 ft | 215 kts | 209° |
| 2026-05-05 17:44 | 38.79318 | 1.27241 | 5554 ft | 236 kts | 178° |
| 2026-05-05 17:44 | 38.77623 | 1.27591 | 5953 ft | 262 kts | 172° |
| 2026-05-05 17:45 | 38.75764 | 1.28037 | 6555 ft | 278 kts | 172° |
| 2026-05-05 17:45 | 38.73842 | 1.28501 | 7382 ft | 283 kts | 172° |
| 2026-05-05 17:45 | 38.71894 | 1.28969 | 8331 ft | 285 kts | 173° |
| 2026-05-05 17:45 | 38.69939 | 1.29432 | 9301 ft | 286 kts | 174° |
| 2026-05-05 17:46 | 38.67975 | 1.29892 | 10228 ft | 287 kts | 175° |
| 2026-05-05 17:46 | 38.66023 | 1.30343 | 11088 ft | 289 kts | 175° |
| 2026-05-05 17:46 | 38.64034 | 1.30800 | 11932 ft | 291 kts | 175° |
| 2026-05-05 17:46 | 38.62037 | 1.31305 | 12804 ft | 296 kts | 170° |
| 2026-05-05 17:47 | 38.60153 | 1.32484 | 13616 ft | 312 kts | 149° |
| 2026-05-05 17:47 | 38.58635 | 1.34565 | 14168 ft | 336 kts | 128° |
| 2026-05-05 17:47 | 38.57783 | 1.37507 | 14337 ft | 371 kts | 104° |
| 2026-05-05 17:47 | 38.57363 | 1.40864 | 14449 ft | 394 kts | 102° |
| 2026-05-05 17:48 | 38.56938 | 1.44424 | 14584 ft | 415 kts | 102° |
| 2026-05-05 17:48 | 38.56491 | 1.48156 | 14702 ft | 433 kts | 102° |
| 2026-05-05 17:48 | 38.56019 | 1.52018 | 14960 ft | 445 kts | 102° |
| 2026-05-05 17:48 | 38.55738 | 1.55991 | 15419 ft | 453 kts | 92° |
| 2026-05-05 17:49 | 38.56037 | 1.60022 | 15932 ft | 460 kts | 80° |
| 2026-05-05 17:49 | 38.56968 | 1.63949 | 16436 ft | 465 kts | 67° |
| 2026-05-05 17:49 | 38.58465 | 1.67621 | 16935 ft | 468 kts | 59° |
| 2026-05-05 17:49 | 38.60088 | 1.71243 | 17434 ft | 472 kts | 59° |
| 2026-05-05 17:50 | 38.61724 | 1.74904 | 17936 ft | 475 kts | 59° |
| 2026-05-05 17:50 | 38.63341 | 1.78536 | 18381 ft | 479 kts | 59° |
| 2026-05-05 17:50 | 38.64996 | 1.82266 | 18810 ft | 483 kts | 59° |
| 2026-05-05 17:50 | 38.66659 | 1.86031 | 19201 ft | 487 kts | 59° |
| 2026-05-05 17:51 | 38.68330 | 1.89819 | 19599 ft | 490 kts | 59° |
| 2026-05-05 17:51 | 38.69999 | 1.93604 | 19992 ft | 493 kts | 59° |
| 2026-05-05 17:51 | 38.71688 | 1.97436 | 20397 ft | 495 kts | 59° |
| 2026-05-05 17:51 | 38.73386 | 2.01291 | 20790 ft | 498 kts | 59° |
| 2026-05-05 17:52 | 38.75081 | 2.05145 | 21160 ft | 501 kts | 59° |
| 2026-05-05 17:52 | 38.76795 | 2.09043 | 21535 ft | 504 kts | 59° |
| 2026-05-05 17:52 | 38.78541 | 2.13013 | 21908 ft | 506 kts | 59° |
| 2026-05-05 17:52 | 38.80279 | 2.16967 | 22272 ft | 509 kts | 59° |
| 2026-05-05 17:53 | 38.81998 | 2.20882 | 22623 ft | 512 kts | 59° |
| 2026-05-05 17:53 | 38.83754 | 2.24884 | 22953 ft | 514 kts | 59° |
| 2026-05-05 17:53 | 38.85511 | 2.28899 | 23282 ft | 517 kts | 59° |
| 2026-05-05 17:53 | 38.87272 | 2.32939 | 23600 ft | 520 kts | 60° |
| 2026-05-05 17:54 | 38.89037 | 2.36997 | 23862 ft | 522 kts | 60° |
| 2026-05-05 17:54 | 38.90212 | 2.39698 | 24034 ft | 524 kts | 60° |
| 2026-05-05 17:54 | 38.91988 | 2.43790 | 24294 ft | 526 kts | 60° |
| 2026-05-05 17:54 | 38.93774 | 2.47905 | 24550 ft | 529 kts | 60° |
| 2026-05-05 17:55 | 38.95568 | 2.52047 | 24809 ft | 531 kts | 60° |
| 2026-05-05 17:55 | 38.97367 | 2.56198 | 25064 ft | 533 kts | 60° |
| 2026-05-05 17:55 | 38.99174 | 2.60369 | 25380 ft | 533 kts | 60° |
| 2026-05-05 17:55 | 39.00974 | 2.64527 | 25742 ft | 533 kts | 60° |
| 2026-05-05 17:56 | 39.02777 | 2.68695 | 26079 ft | 532 kts | 60° |
| 2026-05-05 17:56 | 39.04572 | 2.72849 | 26480 ft | 531 kts | 60° |
| 2026-05-05 17:56 | 39.06361 | 2.77001 | 26876 ft | 530 kts | 60° |
| 2026-05-05 17:56 | 39.08144 | 2.81147 | 27255 ft | 530 kts | 60° |
| 2026-05-05 17:57 | 39.09924 | 2.85295 | 27641 ft | 530 kts | 61° |
| 2026-05-05 17:57 | 39.11707 | 2.89459 | 27971 ft | 531 kts | 61° |
| 2026-05-05 17:57 | 39.13485 | 2.93622 | 28333 ft | 531 kts | 61° |
| 2026-05-05 17:57 | 39.15247 | 2.97777 | 28710 ft | 531 kts | 62° |
| 2026-05-05 17:58 | 39.16971 | 3.01981 | 29095 ft | 531 kts | 63° |
| 2026-05-05 17:58 | 39.18650 | 3.06211 | 29453 ft | 530 kts | 63° |
| 2026-05-05 17:58 | 39.20300 | 3.10456 | 29946 ft | 528 kts | 64° |
| 2026-05-05 17:58 | 39.21939 | 3.14698 | 30348 ft | 526 kts | 64° |
| 2026-05-05 17:59 | 39.23577 | 3.18919 | 30707 ft | 525 kts | 64° |
| 2026-05-05 17:59 | 39.25221 | 3.23123 | 31055 ft | 524 kts | 63° |
| 2026-05-05 17:59 | 39.26873 | 3.27313 | 31394 ft | 524 kts | 63° |
| 2026-05-05 17:59 | 39.28527 | 3.31501 | 31731 ft | 523 kts | 63° |
| 2026-05-05 18:00 | 39.30185 | 3.35698 | 32070 ft | 523 kts | 63° |
| 2026-05-05 18:00 | 39.31824 | 3.39852 | 32377 ft | 525 kts | 64° |
| 2026-05-05 18:00 | 39.33479 | 3.44061 | 32618 ft | 526 kts | 64° |
| 2026-05-05 18:00 | 39.35125 | 3.48261 | 32917 ft | 527 kts | 64° |
| 2026-05-05 18:01 | 39.36775 | 3.52486 | 33257 ft | 526 kts | 64° |
| 2026-05-05 18:01 | 39.38420 | 3.56713 | 33606 ft | 526 kts | 64° |
| 2026-05-05 18:01 | 39.40060 | 3.60938 | 33865 ft | 526 kts | 64° |
| 2026-05-05 18:02 | 39.43356 | 3.69410 | 33908 ft | 528 kts | 64° |
| 2026-05-05 18:02 | 39.46649 | 3.77908 | 33904 ft | 528 kts | 64° |
| 2026-05-05 18:03 | 39.49937 | 3.86407 | 33906 ft | 526 kts | 64° |
| 2026-05-05 18:03 | 39.53210 | 3.94888 | 33907 ft | 528 kts | 64° |
| 2026-05-05 18:04 | 39.57080 | 4.02863 | 33914 ft | 528 kts | 44° |
| 2026-05-05 18:04 | 39.59880 | 4.05888 | 33903 ft | 522 kts | 28° |
| 2026-05-05 18:04 | 39.63110 | 4.07951 | 33903 ft | 512 kts | 13° |
| 2026-05-05 18:05 | 39.69953 | 4.10241 | 33890 ft | 508 kts | 8° |
| 2026-05-05 18:05 | 39.76812 | 4.12467 | 33913 ft | 510 kts | 8° |
| 2026-05-05 18:06 | 39.83694 | 4.14735 | 33900 ft | 511 kts | 8° |
| 2026-05-05 18:06 | 39.90594 | 4.16997 | 33900 ft | 512 kts | 8° |
| 2026-05-05 18:07 | 39.97513 | 4.19261 | 33944 ft | 512 kts | 8° |
| 2026-05-05 18:07 | 40.04434 | 4.21539 | 33890 ft | 513 kts | 8° |
| 2026-05-05 18:08 | 40.11350 | 4.23826 | 33885 ft | 514 kts | 8° |
| 2026-05-05 18:08 | 40.18277 | 4.26116 | 33911 ft | 514 kts | 8° |
| 2026-05-05 18:09 | 40.25228 | 4.28414 | 33886 ft | 515 kts | 8° |
| 2026-05-05 18:09 | 40.32179 | 4.30725 | 33885 ft | 515 kts | 8° |
| 2026-05-05 18:10 | 40.39127 | 4.33031 | 33883 ft | 516 kts | 8° |
| 2026-05-05 18:10 | 40.46096 | 4.35351 | 33895 ft | 517 kts | 8° |
| 2026-05-05 18:11 | 40.53065 | 4.37574 | 33879 ft | 516 kts | 6° |
| 2026-05-05 18:11 | 40.60108 | 4.39291 | 33875 ft | 514 kts | 2° |
| 2026-05-05 18:12 | 40.67171 | 4.40788 | 33874 ft | 514 kts | 3° |
| 2026-05-05 18:12 | 40.74237 | 4.42392 | 33881 ft | 515 kts | 4° |
| 2026-05-05 18:13 | 40.81298 | 4.44121 | 33883 ft | 516 kts | 4° |
| 2026-05-05 18:13 | 40.88358 | 4.45864 | 33893 ft | 516 kts | 4° |
| 2026-05-05 18:14 | 40.95385 | 4.47567 | 33880 ft | 517 kts | 4° |
| 2026-05-05 18:14 | 41.02460 | 4.49273 | 33879 ft | 517 kts | 4° |
| 2026-05-05 18:15 | 41.09556 | 4.50990 | 33904 ft | 518 kts | 4° |
| 2026-05-05 18:15 | 41.16669 | 4.52731 | 33885 ft | 519 kts | 4° |
| 2026-05-05 18:16 | 41.23778 | 4.54474 | 33883 ft | 519 kts | 4° |
| 2026-05-05 18:16 | 41.30895 | 4.56212 | 33896 ft | 520 kts | 4° |
| 2026-05-05 18:17 | 41.37981 | 4.57946 | 33863 ft | 521 kts | 4° |
| 2026-05-05 18:17 | 41.45106 | 4.59693 | 33872 ft | 521 kts | 4° |
| 2026-05-05 18:18 | 41.52244 | 4.61446 | 33899 ft | 522 kts | 4° |
| 2026-05-05 18:18 | 41.59393 | 4.63211 | 33880 ft | 522 kts | 4° |
| 2026-05-05 18:19 | 41.66544 | 4.64982 | 33877 ft | 523 kts | 4° |
| 2026-05-05 18:19 | 41.73644 | 4.67034 | 33892 ft | 530 kts | 12° |
| 2026-05-05 18:19 | 41.77083 | 4.68881 | 33881 ft | 538 kts | 24° |
| 2026-05-05 18:20 | 41.80321 | 4.71415 | 33878 ft | 540 kts | 27° |
| 2026-05-05 18:20 | 41.86776 | 4.76597 | 33876 ft | 541 kts | 28° |
| 2026-05-05 18:21 | 41.93242 | 4.81835 | 33892 ft | 542 kts | 28° |
| 2026-05-05 18:21 | 41.99696 | 4.87094 | 33881 ft | 543 kts | 28° |
| 2026-05-05 18:22 | 42.06159 | 4.92364 | 33883 ft | 543 kts | 28° |
| 2026-05-05 18:22 | 42.12629 | 4.97644 | 33880 ft | 543 kts | 28° |
| 2026-05-05 18:23 | 42.19048 | 5.02903 | 33882 ft | 544 kts | 28° |
| 2026-05-05 18:23 | 42.25507 | 5.08215 | 33884 ft | 544 kts | 28° |
| 2026-05-05 18:24 | 42.31975 | 5.13534 | 33905 ft | 544 kts | 28° |
| 2026-05-05 18:24 | 42.38444 | 5.18875 | 33891 ft | 545 kts | 28° |
| 2026-05-05 18:25 | 42.44916 | 5.24236 | 33892 ft | 545 kts | 28° |
| 2026-05-05 18:25 | 42.51392 | 5.29607 | 33929 ft | 546 kts | 28° |
| 2026-05-05 18:26 | 42.57871 | 5.34983 | 33881 ft | 547 kts | 28° |
| 2026-05-05 18:26 | 42.64369 | 5.40399 | 33890 ft | 547 kts | 28° |
| 2026-05-05 18:27 | 42.70852 | 5.45817 | 33891 ft | 547 kts | 29° |
| 2026-05-05 18:27 | 42.77335 | 5.51251 | 33899 ft | 547 kts | 29° |
| 2026-05-05 18:28 | 42.87065 | 5.59416 | 33903 ft | 547 kts | 29° |
| 2026-05-05 18:28 | 42.93501 | 5.64841 | 33927 ft | 547 kts | 29° |
| 2026-05-05 18:29 | 42.99985 | 5.70320 | 33919 ft | 547 kts | 29° |
| 2026-05-05 18:29 | 43.06466 | 5.75815 | 33915 ft | 547 kts | 29° |
| 2026-05-05 18:30 | 43.12918 | 5.81303 | 33953 ft | 547 kts | 29° |
| 2026-05-05 18:30 | 43.19380 | 5.86796 | 33944 ft | 546 kts | 29° |
| 2026-05-05 18:31 | 43.25801 | 5.92274 | 33938 ft | 546 kts | 29° |
| 2026-05-05 18:31 | 43.32258 | 5.97790 | 33950 ft | 546 kts | 29° |
| 2026-05-05 18:32 | 43.38984 | 6.02491 | 33921 ft | 539 kts | 14° |
| 2026-05-05 18:32 | 43.46189 | 6.04723 | 33918 ft | 524 kts | 358° |
| 2026-05-05 18:33 | 43.53444 | 6.05438 | 33934 ft | 523 kts | 357° |
| 2026-05-05 18:33 | 43.60694 | 6.06173 | 33930 ft | 523 kts | 357° |
| 2026-05-05 18:34 | 43.67950 | 6.06916 | 33939 ft | 523 kts | 357° |
| 2026-05-05 18:34 | 43.75213 | 6.07951 | 33931 ft | 529 kts | 6° |
| 2026-05-05 18:35 | 43.82271 | 6.11313 | 33904 ft | 541 kts | 22° |
| 2026-05-05 18:35 | 43.88984 | 6.15905 | 33926 ft | 542 kts | 22° |
| 2026-05-05 18:36 | 43.95752 | 6.20529 | 33930 ft | 542 kts | 22° |
| 2026-05-05 18:36 | 44.02512 | 6.25160 | 33931 ft | 542 kts | 22° |
| 2026-05-05 18:37 | 44.09248 | 6.29782 | 33961 ft | 541 kts | 22° |
| 2026-05-05 18:37 | 44.16014 | 6.34415 | 33954 ft | 541 kts | 22° |
| 2026-05-05 18:38 | 44.19390 | 6.36737 | 33844 ft | 541 kts | 22° |
| 2026-05-05 18:38 | 44.22757 | 6.39066 | 33566 ft | 540 kts | 22° |
| 2026-05-05 18:38 | 44.26130 | 6.41403 | 33301 ft | 539 kts | 23° |
| 2026-05-05 18:38 | 44.29483 | 6.43726 | 33057 ft | 538 kts | 23° |
| 2026-05-05 18:39 | 44.32842 | 6.46055 | 32786 ft | 537 kts | 23° |
| 2026-05-05 18:39 | 44.36176 | 6.48366 | 32472 ft | 539 kts | 23° |
| 2026-05-05 18:39 | 44.39532 | 6.50691 | 32214 ft | 540 kts | 23° |
| 2026-05-05 18:39 | 44.42898 | 6.53026 | 31969 ft | 539 kts | 23° |
| 2026-05-05 18:40 | 44.46249 | 6.55358 | 31715 ft | 535 kts | 23° |
| 2026-05-05 18:40 | 44.49581 | 6.57685 | 31465 ft | 533 kts | 23° |
| 2026-05-05 18:40 | 44.51772 | 6.59216 | 31298 ft | 533 kts | 23° |
| 2026-05-05 18:40 | 44.55111 | 6.61548 | 31040 ft | 532 kts | 24° |
| 2026-05-05 18:41 | 44.58417 | 6.63858 | 30793 ft | 531 kts | 24° |
| 2026-05-05 18:41 | 44.61726 | 6.66176 | 30546 ft | 530 kts | 24° |
| 2026-05-05 18:41 | 44.65024 | 6.68491 | 30299 ft | 529 kts | 24° |
| 2026-05-05 18:41 | 44.68322 | 6.70811 | 30056 ft | 529 kts | 24° |
| 2026-05-05 18:42 | 44.71611 | 6.73128 | 29794 ft | 529 kts | 24° |
| 2026-05-05 18:42 | 44.74868 | 6.75372 | 29513 ft | 527 kts | 21° |
| 2026-05-05 18:42 | 44.78301 | 6.77131 | 29227 ft | 522 kts | 12° |
| 2026-05-05 18:42 | 44.81837 | 6.78212 | 28955 ft | 516 kts | 4° |
| 2026-05-05 18:43 | 44.85384 | 6.78623 | 28670 ft | 509 kts | 356° |
| 2026-05-05 18:43 | 44.88914 | 6.78466 | 28397 ft | 506 kts | 352° |
| 2026-05-05 18:43 | 44.92433 | 6.78223 | 28122 ft | 506 kts | 352° |
| 2026-05-05 18:43 | 44.95945 | 6.77984 | 27851 ft | 507 kts | 353° |
| 2026-05-05 18:44 | 44.99481 | 6.77747 | 27589 ft | 507 kts | 353° |
| 2026-05-05 18:44 | 45.03000 | 6.77518 | 27327 ft | 507 kts | 353° |
| 2026-05-05 18:44 | 45.06523 | 6.77293 | 27066 ft | 507 kts | 353° |
| 2026-05-05 18:44 | 45.10045 | 6.77068 | 26803 ft | 506 kts | 353° |
| 2026-05-05 18:45 | 45.13564 | 6.76840 | 26529 ft | 507 kts | 353° |
| 2026-05-05 18:45 | 45.17093 | 6.76606 | 26266 ft | 507 kts | 353° |
| 2026-05-05 18:45 | 45.20613 | 6.76370 | 26036 ft | 507 kts | 353° |
| 2026-05-05 18:45 | 45.24138 | 6.76130 | 25785 ft | 508 kts | 353° |
| 2026-05-05 18:46 | 45.27678 | 6.75888 | 25538 ft | 508 kts | 353° |
| 2026-05-05 18:46 | 45.31211 | 6.75648 | 25288 ft | 508 kts | 353° |
| 2026-05-05 18:46 | 45.34709 | 6.75099 | 25044 ft | 504 kts | 346° |
| 2026-05-05 18:46 | 45.38150 | 6.74167 | 24809 ft | 504 kts | 345° |
| 2026-05-05 18:47 | 45.41585 | 6.73235 | 24564 ft | 504 kts | 345° |
| 2026-05-05 18:47 | 45.45029 | 6.72300 | 24327 ft | 503 kts | 345° |
| 2026-05-05 18:47 | 45.48462 | 6.71367 | 24084 ft | 501 kts | 345° |
| 2026-05-05 18:47 | 45.51877 | 6.70439 | 23843 ft | 500 kts | 345° |
| 2026-05-05 18:48 | 45.55284 | 6.69519 | 23621 ft | 498 kts | 346° |
| 2026-05-05 18:48 | 45.58691 | 6.68622 | 23385 ft | 496 kts | 346° |
| 2026-05-05 18:48 | 45.62076 | 6.67751 | 23102 ft | 493 kts | 346° |
| 2026-05-05 18:48 | 45.65449 | 6.66894 | 22826 ft | 491 kts | 346° |
| 2026-05-05 18:49 | 45.68762 | 6.66051 | 22585 ft | 488 kts | 347° |
| 2026-05-05 18:49 | 45.72096 | 6.65198 | 22315 ft | 486 kts | 347° |
| 2026-05-05 18:49 | 45.75419 | 6.64337 | 22045 ft | 484 kts | 347° |
| 2026-05-05 18:49 | 45.78725 | 6.63461 | 21782 ft | 482 kts | 347° |
| 2026-05-05 18:50 | 45.82043 | 6.62559 | 21519 ft | 480 kts | 347° |
| 2026-05-05 18:50 | 45.85327 | 6.61657 | 21249 ft | 479 kts | 347° |
| 2026-05-05 18:50 | 45.88579 | 6.60763 | 20762 ft | 472 kts | 347° |
| 2026-05-05 18:50 | 45.91769 | 6.59889 | 19753 ft | 472 kts | 347° |
| 2026-05-05 18:51 | 45.94977 | 6.59013 | 18899 ft | 468 kts | 347° |
| 2026-05-05 18:51 | 45.98167 | 6.58135 | 18043 ft | 464 kts | 345° |
| 2026-05-05 18:51 | 46.01210 | 6.56783 | 17230 ft | 453 kts | 335° |
| 2026-05-05 18:51 | 46.03988 | 6.54739 | 16433 ft | 443 kts | 324° |
| 2026-05-05 18:52 | 46.06434 | 6.52117 | 15716 ft | 432 kts | 314° |
| 2026-05-05 18:52 | 46.08457 | 6.49085 | 15562 ft | 409 kts | 306° |
| 2026-05-05 18:52 | 46.10145 | 6.45928 | 15438 ft | 386 kts | 302° |
| 2026-05-05 18:52 | 46.11654 | 6.42869 | 15301 ft | 362 kts | 300° |
| 2026-05-05 18:53 | 46.13019 | 6.39957 | 15182 ft | 340 kts | 299° |
| 2026-05-05 18:53 | 46.14282 | 6.37197 | 15062 ft | 320 kts | 298° |
| 2026-05-05 18:53 | 46.15484 | 6.34561 | 14737 ft | 310 kts | 300° |
| 2026-05-05 18:53 | 46.16881 | 6.32196 | 14284 ft | 311 kts | 314° |
| 2026-05-05 18:54 | 46.18727 | 6.30545 | 13825 ft | 316 kts | 336° |
| 2026-05-05 18:54 | 46.20914 | 6.30036 | 13319 ft | 321 kts | 1° |
| 2026-05-05 18:54 | 46.23062 | 6.30859 | 12781 ft | 322 kts | 27° |
| 2026-05-05 18:54 | 46.24804 | 6.32791 | 12241 ft | 320 kts | 46° |
| 2026-05-05 18:55 | 46.26363 | 6.35095 | 11661 ft | 320 kts | 46° |
| 2026-05-05 18:55 | 46.27924 | 6.37406 | 11265 ft | 320 kts | 46° |
| 2026-05-05 18:55 | 46.29478 | 6.39704 | 10886 ft | 319 kts | 46° |
| 2026-05-05 18:55 | 46.31066 | 6.42059 | 10329 ft | 341 kts | 46° |
| 2026-05-05 18:56 | 46.32712 | 6.44495 | 9948 ft | 333 kts | 46° |
| 2026-05-05 18:56 | 46.34304 | 6.46842 | 9609 ft | 316 kts | 46° |
| 2026-05-05 18:56 | 46.35800 | 6.49048 | 9338 ft | 298 kts | 46° |
| 2026-05-05 18:56 | 46.37270 | 6.51053 | 9096 ft | 283 kts | 33° |
| 2026-05-05 18:57 | 46.39045 | 6.52073 | 8837 ft | 272 kts | 3° |
| 2026-05-05 18:57 | 46.40868 | 6.51783 | 8575 ft | 260 kts | 332° |
| 2026-05-05 18:57 | 46.42287 | 6.50323 | 8331 ft | 246 kts | 302° |
| 2026-05-05 18:57 | 46.42952 | 6.48141 | 8072 ft | 232 kts | 271° |
| 2026-05-05 18:58 | 46.42831 | 6.45881 | 7814 ft | 223 kts | 255° |
| 2026-05-05 18:58 | 46.42499 | 6.43705 | 7570 ft | 219 kts | 253° |
| 2026-05-05 18:58 | 46.42149 | 6.41551 | 7192 ft | 223 kts | 253° |
| 2026-05-05 18:58 | 46.41788 | 6.39325 | 6777 ft | 226 kts | 253° |
| 2026-05-05 18:59 | 46.41379 | 6.37215 | 6501 ft | 213 kts | 242° |
| 2026-05-05 18:59 | 46.40507 | 6.35526 | 5945 ft | 214 kts | 225° |
| 2026-05-05 18:59 | 46.39446 | 6.33964 | 5492 ft | 216 kts | 225° |
| 2026-05-05 18:59 | 46.38395 | 6.32414 | 5161 ft | 216 kts | 225° |
| 2026-05-05 19:00 | 46.37362 | 6.30886 | 4871 ft | 214 kts | 225° |
| 2026-05-05 19:00 | 46.36324 | 6.29350 | 4584 ft | 213 kts | 225° |
| 2026-05-05 19:00 | 46.35277 | 6.27803 | 4291 ft | 211 kts | 225° |
| 2026-05-05 19:00 | 46.34286 | 6.26337 | 4010 ft | 202 kts | 225° |
| 2026-05-05 19:01 | 46.33324 | 6.24916 | 3751 ft | 193 kts | 225° |
| 2026-05-05 19:01 | 46.32405 | 6.23559 | 3500 ft | 182 kts | 224° |
| 2026-05-05 19:01 | 46.31556 | 6.22306 | 3274 ft | 166 kts | 224° |
| 2026-05-05 19:01 | 46.30781 | 6.21161 | 3092 ft | 150 kts | 224° |
| 2026-05-05 19:02 | 46.30085 | 6.20134 | 2864 ft | 138 kts | 223° |
| 2026-05-05 19:02 | 46.29427 | 6.19165 | 2665 ft | 133 kts | 224° |
| 2026-05-05 19:02 | 46.28788 | 6.18220 | 2479 ft | 130 kts | 222° |
| 2026-05-05 19:02 | 46.28152 | 6.17285 | 2293 ft | 131 kts | 222° |
| 2026-05-05 19:03 | 46.27508 | 6.16340 | 2057 ft | 132 kts | 222° |
| 2026-05-05 19:03 | 46.26869 | 6.15403 | 1906 ft | 133 kts | 223° |
| 2026-05-05 19:03 | 46.26227 | 6.14453 | 1734 ft | 131 kts | 221° |
| 2026-05-05 19:03 | 46.25597 | 6.13525 | 1587 ft | 129 kts | 223° |
| 2026-05-05 19:04 | 46.24969 | 6.12610 | 1434 ft | 128 kts | 223° |
| 2026-05-05 19:04 | 46.24386 | 6.11744 | 1372 ft | 103 kts | 225° |
| 2026-05-05 19:04 | 46.23971 | 6.11139 | 1378 ft | 69 kts | 225° |
| 2026-05-05 19:04 | 46.23743 | 6.10824 | 1382 ft | 30 kts | 215° |
| 2026-05-05 19:05 | 46.23567 | 6.10715 | 1381 ft | 22 kts | 196° |
| 2026-05-05 19:05 | 46.23517 | 6.10695 | 1387 ft | 0 kts | 195° |
| 2026-05-05 19:06 | 46.23489 | 6.10685 | 1387 ft | 10 kts | 194° |
| 2026-05-05 19:06 | 46.23423 | 6.10655 | 1401 ft | 10 kts | 200° |
| 2026-05-05 19:07 | 46.23366 | 6.10591 | 1397 ft | 12 kts | 225° |
| 2026-05-05 19:07 | 46.23304 | 6.10503 | 1398 ft | 14 kts | 226° |
| 2026-05-05 19:07 | 46.23234 | 6.10398 | 1399 ft | 15 kts | 225° |
| 2026-05-05 19:07 | 46.23158 | 6.10288 | 1393 ft | 12 kts | 226° |
| 2026-05-05 19:08 | 46.23104 | 6.10197 | 1398 ft | 12 kts | 227° |
| 2026-05-05 19:08 | 46.23054 | 6.10167 | 1399 ft | 9 kts | 160° |
| 2026-05-05 19:08 | 46.22997 | 6.10241 | 1401 ft | 12 kts | 135° |
| 2026-05-05 19:08 | 46.22958 | 6.10341 | 1394 ft | 12 kts | 72° |
| 2026-05-05 19:09 | 46.22995 | 6.10402 | 1393 ft | 6 kts | 21° |
| 2026-05-05 19:09 | 46.23036 | 6.10405 | 1393 ft | 6 kts | 359° |
| 2026-05-05 19:09 | 46.23063 | 6.10405 | 1393 ft | 1 kts | 0° |
| 2026-05-05 19:09 | 46.23065 | 6.10405 | 1393 ft | 0 kts | 0° |